sensor_id;sensor_type;location;lat;lon;timestamp;P1;durP1;ratioP1;P2;durP2;ratioP2
5295;SDS011;2670;42.720;23.336;2024-01-11T00:00:08;57.53;;;24.47;;
5295;SDS011;2670;42.720;23.336;2024-01-11T00:02:36;60.10;;;23.57;;
5295;SDS011;2670;42.720;23.336;2024-01-11T00:05:03;61.47;;;24.30;;
5295;SDS011;2670;42.720;23.336;2024-01-11T00:07:29;54.30;;;23.03;;
5295;SDS011;2670;42.720;23.336;2024-01-11T00:09:55;52.57;;;21.37;;
5295;SDS011;2670;42.720;23.336;2024-01-11T00:12:22;48.27;;;19.67;;
5295;SDS011;2670;42.720;23.336;2024-01-11T00:14:48;45.20;;;19.70;;
5295;SDS011;2670;42.720;23.336;2024-01-11T00:17:15;38.43;;;18.37;;
5295;SDS011;2670;42.720;23.336;2024-01-11T00:19:43;38.20;;;17.63;;
5295;SDS011;2670;42.720;23.336;2024-01-11T00:22:09;45.60;;;19.13;;
5295;SDS011;2670;42.720;23.336;2024-01-11T00:24:36;36.03;;;16.80;;
5295;SDS011;2670;42.720;23.336;2024-01-11T00:27:03;49.37;;;20.33;;
5295;SDS011;2670;42.720;23.336;2024-01-11T00:29:29;46.80;;;18.93;;
5295;SDS011;2670;42.720;23.336;2024-01-11T00:31:56;45.77;;;20.00;;
5295;SDS011;2670;42.720;23.336;2024-01-11T00:34:23;59.37;;;23.60;;
5295;SDS011;2670;42.720;23.336;2024-01-11T00:36:51;63.07;;;23.93;;
5295;SDS011;2670;42.720;23.336;2024-01-11T00:39:17;44.23;;;21.60;;
5295;SDS011;2670;42.720;23.336;2024-01-11T00:41:44;54.30;;;19.93;;
5295;SDS011;2670;42.720;23.336;2024-01-11T00:44:10;53.07;;;22.30;;
5295;SDS011;2670;42.720;23.336;2024-01-11T00:46:36;44.63;;;20.90;;
5295;SDS011;2670;42.720;23.336;2024-01-11T00:49:03;41.60;;;18.80;;
5295;SDS011;2670;42.720;23.336;2024-01-11T00:51:29;42.57;;;17.93;;
5295;SDS011;2670;42.720;23.336;2024-01-11T00:53:57;45.60;;;19.07;;
5295;SDS011;2670;42.720;23.336;2024-01-11T00:56:24;44.37;;;19.10;;
5295;SDS011;2670;42.720;23.336;2024-01-11T00:58:51;40.67;;;19.33;;
5295;SDS011;2670;42.720;23.336;2024-01-11T01:01:17;43.30;;;18.90;;
5295;SDS011;2670;42.720;23.336;2024-01-11T01:03:44;37.87;;;18.03;;
5295;SDS011;2670;42.720;23.336;2024-01-11T01:06:10;39.83;;;17.70;;
5295;SDS011;2670;42.720;23.336;2024-01-11T01:08:37;41.10;;;17.00;;
5295;SDS011;2670;42.720;23.336;2024-01-11T01:11:04;42.73;;;18.00;;
5295;SDS011;2670;42.720;23.336;2024-01-11T01:13:31;38.63;;;16.90;;
5295;SDS011;2670;42.720;23.336;2024-01-11T01:15:58;29.83;;;15.10;;
5295;SDS011;2670;42.720;23.336;2024-01-11T01:18:24;31.60;;;15.13;;
5295;SDS011;2670;42.720;23.336;2024-01-11T01:20:51;39.43;;;15.43;;
5295;SDS011;2670;42.720;23.336;2024-01-11T01:23:17;32.23;;;16.20;;
5295;SDS011;2670;42.720;23.336;2024-01-11T01:25:44;27.93;;;13.23;;
5295;SDS011;2670;42.720;23.336;2024-01-11T01:28:12;42.73;;;16.50;;
5295;SDS011;2670;42.720;23.336;2024-01-11T01:30:38;47.13;;;15.90;;
5295;SDS011;2670;42.720;23.336;2024-01-11T01:33:05;39.00;;;17.50;;
5295;SDS011;2670;42.720;23.336;2024-01-11T01:35:31;34.67;;;17.50;;
5295;SDS011;2670;42.720;23.336;2024-01-11T01:37:59;41.70;;;16.80;;
5295;SDS011;2670;42.720;23.336;2024-01-11T01:40:26;29.13;;;15.33;;
5295;SDS011;2670;42.720;23.336;2024-01-11T01:42:57;33.70;;;14.90;;
5295;SDS011;2670;42.720;23.336;2024-01-11T01:45:25;30.90;;;15.10;;
5295;SDS011;2670;42.720;23.336;2024-01-11T01:47:52;46.97;;;16.30;;
5295;SDS011;2670;42.720;23.336;2024-01-11T01:50:18;41.63;;;17.93;;
5295;SDS011;2670;42.720;23.336;2024-01-11T01:52:46;39.50;;;18.10;;
5295;SDS011;2670;42.720;23.336;2024-01-11T01:55:12;42.60;;;19.30;;
5295;SDS011;2670;42.720;23.336;2024-01-11T01:57:41;38.53;;;16.40;;
5295;SDS011;2670;42.720;23.336;2024-01-11T02:00:09;38.43;;;15.90;;
5295;SDS011;2670;42.720;23.336;2024-01-11T02:02:38;35.30;;;15.17;;
5295;SDS011;2670;42.720;23.336;2024-01-11T02:05:06;39.73;;;16.70;;
5295;SDS011;2670;42.720;23.336;2024-01-11T02:07:32;48.97;;;17.90;;
5295;SDS011;2670;42.720;23.336;2024-01-11T02:09:59;38.23;;;16.00;;
5295;SDS011;2670;42.720;23.336;2024-01-11T02:12:26;35.37;;;16.67;;
5295;SDS011;2670;42.720;23.336;2024-01-11T02:14:53;60.47;;;29.30;;
5295;SDS011;2670;42.720;23.336;2024-01-11T02:17:19;34.53;;;18.00;;
5295;SDS011;2670;42.720;23.336;2024-01-11T02:19:47;33.23;;;15.97;;
5295;SDS011;2670;42.720;23.336;2024-01-11T02:22:15;41.43;;;19.10;;
5295;SDS011;2670;42.720;23.336;2024-01-11T02:24:46;43.77;;;17.90;;
5295;SDS011;2670;42.720;23.336;2024-01-11T02:27:13;34.77;;;16.10;;
5295;SDS011;2670;42.720;23.336;2024-01-11T02:29:39;36.53;;;16.27;;
5295;SDS011;2670;42.720;23.336;2024-01-11T02:32:06;33.73;;;15.30;;
5295;SDS011;2670;42.720;23.336;2024-01-11T02:34:33;29.80;;;14.70;;
5295;SDS011;2670;42.720;23.336;2024-01-11T02:37:00;26.27;;;12.87;;
5295;SDS011;2670;42.720;23.336;2024-01-11T02:39:26;26.10;;;13.50;;
5295;SDS011;2670;42.720;23.336;2024-01-11T02:41:55;31.73;;;14.57;;
5295;SDS011;2670;42.720;23.336;2024-01-11T02:44:22;35.07;;;14.60;;
5295;SDS011;2670;42.720;23.336;2024-01-11T02:46:48;29.53;;;14.53;;
5295;SDS011;2670;42.720;23.336;2024-01-11T02:49:15;42.30;;;16.90;;
5295;SDS011;2670;42.720;23.336;2024-01-11T02:54:17;38.67;;;17.03;;
5295;SDS011;2670;42.720;23.336;2024-01-11T02:56:44;42.30;;;16.30;;
5295;SDS011;2670;42.720;23.336;2024-01-11T02:59:12;35.73;;;14.30;;
5295;SDS011;2670;42.720;23.336;2024-01-11T03:01:38;26.73;;;13.33;;
5295;SDS011;2670;42.720;23.336;2024-01-11T03:04:05;33.10;;;13.97;;
5295;SDS011;2670;42.720;23.336;2024-01-11T03:06:31;43.73;;;15.30;;
5295;SDS011;2670;42.720;23.336;2024-01-11T03:08:58;30.17;;;15.37;;
5295;SDS011;2670;42.720;23.336;2024-01-11T03:11:24;32.33;;;14.67;;
5295;SDS011;2670;42.720;23.336;2024-01-11T03:13:51;39.23;;;16.60;;
5295;SDS011;2670;42.720;23.336;2024-01-11T03:16:19;39.80;;;16.27;;
5295;SDS011;2670;42.720;23.336;2024-01-11T03:18:45;29.10;;;13.53;;
5295;SDS011;2670;42.720;23.336;2024-01-11T03:21:12;36.67;;;16.53;;
5295;SDS011;2670;42.720;23.336;2024-01-11T03:23:38;36.97;;;15.93;;
5295;SDS011;2670;42.720;23.336;2024-01-11T03:26:11;37.80;;;15.83;;
5295;SDS011;2670;42.720;23.336;2024-01-11T03:28:38;31.47;;;14.93;;
5295;SDS011;2670;42.720;23.336;2024-01-11T03:31:04;40.30;;;16.53;;
5295;SDS011;2670;42.720;23.336;2024-01-11T03:33:32;33.17;;;15.50;;
5295;SDS011;2670;42.720;23.336;2024-01-11T03:35:58;33.10;;;14.77;;
5295;SDS011;2670;42.720;23.336;2024-01-11T03:38:25;41.47;;;16.70;;
5295;SDS011;2670;42.720;23.336;2024-01-11T03:40:51;39.00;;;18.10;;
5295;SDS011;2670;42.720;23.336;2024-01-11T03:43:18;41.17;;;17.73;;
5295;SDS011;2670;42.720;23.336;2024-01-11T03:45:44;40.87;;;17.20;;
5295;SDS011;2670;42.720;23.336;2024-01-11T03:48:10;37.97;;;17.53;;
5295;SDS011;2670;42.720;23.336;2024-01-11T03:50:38;41.27;;;16.67;;
5295;SDS011;2670;42.720;23.336;2024-01-11T03:53:05;38.20;;;17.33;;
5295;SDS011;2670;42.720;23.336;2024-01-11T03:55:31;31.50;;;16.40;;
5295;SDS011;2670;42.720;23.336;2024-01-11T03:57:58;39.53;;;15.63;;
5295;SDS011;2670;42.720;23.336;2024-01-11T04:00:24;35.27;;;17.07;;
5295;SDS011;2670;42.720;23.336;2024-01-11T04:02:51;29.37;;;15.00;;
5295;SDS011;2670;42.720;23.336;2024-01-11T04:05:17;34.63;;;17.90;;
5295;SDS011;2670;42.720;23.336;2024-01-11T04:07:45;38.20;;;18.07;;
5295;SDS011;2670;42.720;23.336;2024-01-11T04:10:11;36.93;;;18.80;;
5295;SDS011;2670;42.720;23.336;2024-01-11T04:12:38;39.07;;;19.47;;
5295;SDS011;2670;42.720;23.336;2024-01-11T04:15:05;42.53;;;19.37;;
5295;SDS011;2670;42.720;23.336;2024-01-11T04:17:31;43.90;;;20.10;;
5295;SDS011;2670;42.720;23.336;2024-01-11T04:19:58;44.57;;;18.83;;
5295;SDS011;2670;42.720;23.336;2024-01-11T04:22:24;44.10;;;19.00;;
5295;SDS011;2670;42.720;23.336;2024-01-11T04:24:52;38.13;;;16.57;;
5295;SDS011;2670;42.720;23.336;2024-01-11T04:27:18;49.17;;;17.60;;
5295;SDS011;2670;42.720;23.336;2024-01-11T04:29:45;43.10;;;19.40;;
5295;SDS011;2670;42.720;23.336;2024-01-11T04:32:11;51.30;;;22.00;;
5295;SDS011;2670;42.720;23.336;2024-01-11T04:34:38;43.70;;;19.40;;
5295;SDS011;2670;42.720;23.336;2024-01-11T04:37:04;60.53;;;26.10;;
5295;SDS011;2670;42.720;23.336;2024-01-11T04:39:31;66.70;;;27.07;;
5295;SDS011;2670;42.720;23.336;2024-01-11T04:41:58;61.00;;;27.50;;
5295;SDS011;2670;42.720;23.336;2024-01-11T04:44:25;69.70;;;36.67;;
5295;SDS011;2670;42.720;23.336;2024-01-11T04:46:52;63.20;;;35.30;;
5295;SDS011;2670;42.720;23.336;2024-01-11T04:49:18;48.17;;;23.00;;
5295;SDS011;2670;42.720;23.336;2024-01-11T04:51:45;51.10;;;22.13;;
5295;SDS011;2670;42.720;23.336;2024-01-11T04:54:11;43.40;;;19.10;;
5295;SDS011;2670;42.720;23.336;2024-01-11T04:56:37;38.27;;;17.97;;
5295;SDS011;2670;42.720;23.336;2024-01-11T04:59:05;44.90;;;19.60;;
5295;SDS011;2670;42.720;23.336;2024-01-11T05:01:32;41.87;;;20.90;;
5295;SDS011;2670;42.720;23.336;2024-01-11T05:03:58;45.60;;;21.13;;
5295;SDS011;2670;42.720;23.336;2024-01-11T05:06:24;47.20;;;21.00;;
5295;SDS011;2670;42.720;23.336;2024-01-11T05:08:51;62.80;;;22.07;;
5295;SDS011;2670;42.720;23.336;2024-01-11T05:11:18;58.40;;;22.47;;
5295;SDS011;2670;42.720;23.336;2024-01-11T05:13:45;54.20;;;22.90;;
5295;SDS011;2670;42.720;23.336;2024-01-11T05:16:18;43.40;;;21.63;;
5295;SDS011;2670;42.720;23.336;2024-01-11T05:18:45;45.70;;;21.37;;
5295;SDS011;2670;42.720;23.336;2024-01-11T05:21:11;40.43;;;19.43;;
5295;SDS011;2670;42.720;23.336;2024-01-11T05:23:38;39.47;;;19.50;;
5295;SDS011;2670;42.720;23.336;2024-01-11T05:26:04;51.90;;;21.57;;
5295;SDS011;2670;42.720;23.336;2024-01-11T05:28:30;49.23;;;22.17;;
5295;SDS011;2670;42.720;23.336;2024-01-11T05:30:57;56.73;;;23.37;;
5295;SDS011;2670;42.720;23.336;2024-01-11T05:33:25;49.80;;;23.27;;
5295;SDS011;2670;42.720;23.336;2024-01-11T05:35:51;52.67;;;23.63;;
5295;SDS011;2670;42.720;23.336;2024-01-11T05:38:18;46.07;;;22.03;;
5295;SDS011;2670;42.720;23.336;2024-01-11T05:40:45;51.93;;;25.53;;
5295;SDS011;2670;42.720;23.336;2024-01-11T05:43:11;63.63;;;29.90;;
5295;SDS011;2670;42.720;23.336;2024-01-11T05:45:38;76.60;;;33.00;;
5295;SDS011;2670;42.720;23.336;2024-01-11T05:48:04;74.57;;;26.57;;
5295;SDS011;2670;42.720;23.336;2024-01-11T05:50:33;62.07;;;26.87;;
5295;SDS011;2670;42.720;23.336;2024-01-11T05:52:59;51.90;;;22.57;;
5295;SDS011;2670;42.720;23.336;2024-01-11T05:55:26;49.10;;;21.37;;
5295;SDS011;2670;42.720;23.336;2024-01-11T05:57:52;42.03;;;18.30;;
5295;SDS011;2670;42.720;23.336;2024-01-11T06:00:19;44.27;;;20.93;;
5295;SDS011;2670;42.720;23.336;2024-01-11T06:02:46;36.67;;;19.80;;
5295;SDS011;2670;42.720;23.336;2024-01-11T06:05:12;51.40;;;21.90;;
5295;SDS011;2670;42.720;23.336;2024-01-11T06:07:41;42.00;;;19.30;;
5295;SDS011;2670;42.720;23.336;2024-01-11T06:10:07;62.43;;;26.00;;
5295;SDS011;2670;42.720;23.336;2024-01-11T06:12:34;81.07;;;28.67;;
5295;SDS011;2670;42.720;23.336;2024-01-11T06:15:00;67.73;;;25.77;;
5295;SDS011;2670;42.720;23.336;2024-01-11T06:17:27;46.30;;;19.83;;
5295;SDS011;2670;42.720;23.336;2024-01-11T06:19:53;49.40;;;19.03;;
5295;SDS011;2670;42.720;23.336;2024-01-11T06:22:20;96.87;;;36.43;;
5295;SDS011;2670;42.720;23.336;2024-01-11T06:24:47;92.97;;;38.23;;
5295;SDS011;2670;42.720;23.336;2024-01-11T06:27:14;66.90;;;23.67;;
5295;SDS011;2670;42.720;23.336;2024-01-11T06:29:40;58.93;;;24.47;;
5295;SDS011;2670;42.720;23.336;2024-01-11T06:32:07;66.23;;;25.63;;
5295;SDS011;2670;42.720;23.336;2024-01-11T06:34:34;74.40;;;26.77;;
5295;SDS011;2670;42.720;23.336;2024-01-11T06:37:01;64.37;;;27.00;;
5295;SDS011;2670;42.720;23.336;2024-01-11T06:39:28;113.53;;;42.60;;
5295;SDS011;2670;42.720;23.336;2024-01-11T06:41:57;75.83;;;29.93;;
5295;SDS011;2670;42.720;23.336;2024-01-11T06:44:24;52.80;;;23.37;;
5295;SDS011;2670;42.720;23.336;2024-01-11T06:46:50;117.37;;;48.63;;
5295;SDS011;2670;42.720;23.336;2024-01-11T06:49:17;72.00;;;31.87;;
5295;SDS011;2670;42.720;23.336;2024-01-11T06:51:43;48.70;;;22.40;;
5295;SDS011;2670;42.720;23.336;2024-01-11T06:54:10;40.70;;;18.30;;
5295;SDS011;2670;42.720;23.336;2024-01-11T06:56:36;45.47;;;22.13;;
5295;SDS011;2670;42.720;23.336;2024-01-11T06:59:04;51.63;;;23.17;;
5295;SDS011;2670;42.720;23.336;2024-01-11T07:01:32;59.30;;;25.27;;
5295;SDS011;2670;42.720;23.336;2024-01-11T07:04:00;57.27;;;26.10;;
5295;SDS011;2670;42.720;23.336;2024-01-11T07:06:27;57.50;;;26.60;;
5295;SDS011;2670;42.720;23.336;2024-01-11T07:08:53;72.23;;;33.30;;
5295;SDS011;2670;42.720;23.336;2024-01-11T07:11:20;89.97;;;39.43;;
5295;SDS011;2670;42.720;23.336;2024-01-11T07:13:46;78.47;;;34.20;;
5295;SDS011;2670;42.720;23.336;2024-01-11T07:16:14;67.10;;;34.33;;
5295;SDS011;2670;42.720;23.336;2024-01-11T07:18:40;84.67;;;33.67;;
5295;SDS011;2670;42.720;23.336;2024-01-11T07:21:07;68.97;;;32.43;;
5295;SDS011;2670;42.720;23.336;2024-01-11T07:23:33;73.10;;;33.00;;
5295;SDS011;2670;42.720;23.336;2024-01-11T07:26:00;64.00;;;28.63;;
5295;SDS011;2670;42.720;23.336;2024-01-11T07:28:26;71.27;;;31.33;;
5295;SDS011;2670;42.720;23.336;2024-01-11T07:30:53;70.17;;;27.70;;
5295;SDS011;2670;42.720;23.336;2024-01-11T07:33:20;61.10;;;27.60;;
5295;SDS011;2670;42.720;23.336;2024-01-11T07:35:47;56.87;;;27.67;;
5295;SDS011;2670;42.720;23.336;2024-01-11T07:38:13;47.97;;;21.20;;
5295;SDS011;2670;42.720;23.336;2024-01-11T07:40:40;60.17;;;29.27;;
5295;SDS011;2670;42.720;23.336;2024-01-11T07:43:07;54.13;;;27.90;;
5295;SDS011;2670;42.720;23.336;2024-01-11T07:45:34;53.07;;;24.10;;
5295;SDS011;2670;42.720;23.336;2024-01-11T07:48:00;45.47;;;23.00;;
5295;SDS011;2670;42.720;23.336;2024-01-11T07:50:30;46.13;;;22.20;;
5295;SDS011;2670;42.720;23.336;2024-01-11T07:52:56;52.40;;;24.67;;
5295;SDS011;2670;42.720;23.336;2024-01-11T07:55:22;56.97;;;24.57;;
5295;SDS011;2670;42.720;23.336;2024-01-11T07:57:49;54.07;;;24.23;;
5295;SDS011;2670;42.720;23.336;2024-01-11T08:00:16;64.77;;;25.83;;
5295;SDS011;2670;42.720;23.336;2024-01-11T08:02:42;52.90;;;24.60;;
5295;SDS011;2670;42.720;23.336;2024-01-11T08:05:09;48.80;;;24.33;;
5295;SDS011;2670;42.720;23.336;2024-01-11T08:07:37;46.90;;;22.47;;
5295;SDS011;2670;42.720;23.336;2024-01-11T08:10:03;50.07;;;24.10;;
5295;SDS011;2670;42.720;23.336;2024-01-11T08:12:31;58.87;;;25.90;;
5295;SDS011;2670;42.720;23.336;2024-01-11T08:14:58;56.60;;;25.97;;
5295;SDS011;2670;42.720;23.336;2024-01-11T08:17:24;49.20;;;22.57;;
5295;SDS011;2670;42.720;23.336;2024-01-11T08:19:51;45.10;;;22.83;;
5295;SDS011;2670;42.720;23.336;2024-01-11T08:22:17;38.07;;;19.23;;
5295;SDS011;2670;42.720;23.336;2024-01-11T08:24:45;40.63;;;20.37;;
5295;SDS011;2670;42.720;23.336;2024-01-11T08:27:12;43.33;;;19.43;;
5295;SDS011;2670;42.720;23.336;2024-01-11T08:29:40;45.87;;;21.10;;
5295;SDS011;2670;42.720;23.336;2024-01-11T08:32:07;34.93;;;17.83;;
5295;SDS011;2670;42.720;23.336;2024-01-11T08:34:33;45.77;;;20.57;;
5295;SDS011;2670;42.720;23.336;2024-01-11T08:36:59;39.13;;;19.43;;
5295;SDS011;2670;42.720;23.336;2024-01-11T08:45:38;38.40;;;20.33;;
5295;SDS011;2670;42.720;23.336;2024-01-11T08:48:05;34.50;;;18.37;;
5295;SDS011;2670;42.720;23.336;2024-01-11T08:50:32;47.43;;;21.83;;
5295;SDS011;2670;42.720;23.336;2024-01-11T08:52:58;45.00;;;20.93;;
5295;SDS011;2670;42.720;23.336;2024-01-11T08:58:18;41.20;;;19.60;;
5295;SDS011;2670;42.720;23.336;2024-01-11T09:00:46;49.30;;;22.30;;
5295;SDS011;2670;42.720;23.336;2024-01-11T09:03:12;46.87;;;21.90;;
5295;SDS011;2670;42.720;23.336;2024-01-11T09:05:40;42.60;;;20.37;;
5295;SDS011;2670;42.720;23.336;2024-01-11T09:08:07;42.43;;;19.77;;
5295;SDS011;2670;42.720;23.336;2024-01-11T09:10:33;44.53;;;21.80;;
5295;SDS011;2670;42.720;23.336;2024-01-11T09:13:00;46.60;;;21.60;;
5295;SDS011;2670;42.720;23.336;2024-01-11T09:15:27;47.70;;;21.83;;
5295;SDS011;2670;42.720;23.336;2024-01-11T09:17:55;50.77;;;21.83;;
5295;SDS011;2670;42.720;23.336;2024-01-11T09:20:21;56.93;;;25.70;;
5295;SDS011;2670;42.720;23.336;2024-01-11T09:22:47;47.20;;;21.60;;
5295;SDS011;2670;42.720;23.336;2024-01-11T09:25:14;52.23;;;22.97;;
5295;SDS011;2670;42.720;23.336;2024-01-11T09:27:40;44.83;;;21.17;;
5295;SDS011;2670;42.720;23.336;2024-01-11T09:30:07;44.53;;;22.47;;
5295;SDS011;2670;42.720;23.336;2024-01-11T09:32:34;48.83;;;21.50;;
5295;SDS011;2670;42.720;23.336;2024-01-11T09:35:03;48.93;;;23.23;;
5295;SDS011;2670;42.720;23.336;2024-01-11T09:37:29;48.80;;;22.80;;
5295;SDS011;2670;42.720;23.336;2024-01-11T09:39:56;47.13;;;20.93;;
5295;SDS011;2670;42.720;23.336;2024-01-11T09:42:22;46.80;;;20.87;;
5295;SDS011;2670;42.720;23.336;2024-01-11T09:44:49;45.53;;;21.43;;
5295;SDS011;2670;42.720;23.336;2024-01-11T09:47:19;47.17;;;22.37;;
5295;SDS011;2670;42.720;23.336;2024-01-11T09:49:48;47.77;;;19.90;;
5295;SDS011;2670;42.720;23.336;2024-01-11T09:52:17;47.07;;;19.53;;
5295;SDS011;2670;42.720;23.336;2024-01-11T09:54:46;38.77;;;16.80;;
5295;SDS011;2670;42.720;23.336;2024-01-11T09:57:12;41.60;;;19.37;;
5295;SDS011;2670;42.720;23.336;2024-01-11T09:59:41;35.27;;;16.73;;
5295;SDS011;2670;42.720;23.336;2024-01-11T10:02:07;35.30;;;16.80;;
5295;SDS011;2670;42.720;23.336;2024-01-11T10:04:36;34.43;;;17.70;;
5295;SDS011;2670;42.720;23.336;2024-01-11T10:07:03;33.13;;;13.57;;
5295;SDS011;2670;42.720;23.336;2024-01-11T10:09:32;49.30;;;19.07;;
5295;SDS011;2670;42.720;23.336;2024-01-11T10:11:58;35.00;;;16.57;;
5295;SDS011;2670;42.720;23.336;2024-01-11T10:14:25;27.83;;;14.00;;
5295;SDS011;2670;42.720;23.336;2024-01-11T10:16:53;39.10;;;15.03;;
5295;SDS011;2670;42.720;23.336;2024-01-11T10:19:20;29.40;;;14.33;;
5295;SDS011;2670;42.720;23.336;2024-01-11T10:21:46;29.90;;;15.30;;
5295;SDS011;2670;42.720;23.336;2024-01-11T10:24:17;26.70;;;14.33;;
5295;SDS011;2670;42.720;23.336;2024-01-11T10:26:45;30.93;;;13.00;;
5295;SDS011;2670;42.720;23.336;2024-01-11T10:29:11;31.80;;;14.90;;
5295;SDS011;2670;42.720;23.336;2024-01-11T10:31:38;33.30;;;13.60;;
5295;SDS011;2670;42.720;23.336;2024-01-11T10:34:04;28.93;;;13.70;;
5295;SDS011;2670;42.720;23.336;2024-01-11T10:36:31;30.20;;;13.00;;
5295;SDS011;2670;42.720;23.336;2024-01-11T10:38:58;23.27;;;12.57;;
5295;SDS011;2670;42.720;23.336;2024-01-11T10:41:26;27.00;;;12.73;;
5295;SDS011;2670;42.720;23.336;2024-01-11T10:43:55;23.33;;;12.13;;
5295;SDS011;2670;42.720;23.336;2024-01-11T10:46:24;21.13;;;10.80;;
5295;SDS011;2670;42.720;23.336;2024-01-11T10:48:52;29.30;;;12.90;;
5295;SDS011;2670;42.720;23.336;2024-01-11T10:51:19;25.33;;;11.60;;
5295;SDS011;2670;42.720;23.336;2024-01-11T10:53:48;26.30;;;13.03;;
5295;SDS011;2670;42.720;23.336;2024-01-11T10:56:16;28.83;;;13.80;;
5295;SDS011;2670;42.720;23.336;2024-01-11T10:58:43;21.20;;;11.00;;
5295;SDS011;2670;42.720;23.336;2024-01-11T11:01:11;39.20;;;17.20;;
5295;SDS011;2670;42.720;23.336;2024-01-11T11:03:38;36.30;;;13.13;;
5295;SDS011;2670;42.720;23.336;2024-01-11T11:06:07;27.57;;;12.60;;
5295;SDS011;2670;42.720;23.336;2024-01-11T11:08:35;25.23;;;10.13;;
5295;SDS011;2670;42.720;23.336;2024-01-11T11:11:02;29.87;;;11.73;;
5295;SDS011;2670;42.720;23.336;2024-01-11T11:13:31;24.07;;;11.47;;
5295;SDS011;2670;42.720;23.336;2024-01-11T11:15:57;29.60;;;13.27;;
5295;SDS011;2670;42.720;23.336;2024-01-11T11:18:25;27.53;;;11.20;;
5295;SDS011;2670;42.720;23.336;2024-01-11T11:20:51;19.87;;;11.60;;
5295;SDS011;2670;42.720;23.336;2024-01-11T11:23:19;21.37;;;10.50;;
5295;SDS011;2670;42.720;23.336;2024-01-11T11:25:46;18.50;;;10.03;;
5295;SDS011;2670;42.720;23.336;2024-01-11T11:28:12;23.13;;;11.43;;
5295;SDS011;2670;42.720;23.336;2024-01-11T11:30:40;29.83;;;13.63;;
5295;SDS011;2670;42.720;23.336;2024-01-11T11:33:08;23.20;;;11.63;;
5295;SDS011;2670;42.720;23.336;2024-01-11T11:35:36;10.90;;;5.80;;
5295;SDS011;2670;42.720;23.336;2024-01-11T11:38:02;21.13;;;10.47;;
5295;SDS011;2670;42.720;23.336;2024-01-11T11:40:33;20.10;;;9.67;;
5295;SDS011;2670;42.720;23.336;2024-01-11T11:43:04;29.00;;;12.53;;
5295;SDS011;2670;42.720;23.336;2024-01-11T11:45:31;22.13;;;10.90;;
5295;SDS011;2670;42.720;23.336;2024-01-11T11:47:57;21.37;;;9.77;;
5295;SDS011;2670;42.720;23.336;2024-01-11T11:50:24;25.13;;;9.60;;
5295;SDS011;2670;42.720;23.336;2024-01-11T11:52:54;22.17;;;11.23;;
5295;SDS011;2670;42.720;23.336;2024-01-11T11:55:22;16.23;;;9.43;;
5295;SDS011;2670;42.720;23.336;2024-01-11T11:57:48;22.40;;;11.20;;
5295;SDS011;2670;42.720;23.336;2024-01-11T12:00:15;17.23;;;6.37;;
5295;SDS011;2670;42.720;23.336;2024-01-11T12:02:42;16.03;;;9.47;;
5295;SDS011;2670;42.720;23.336;2024-01-11T12:05:08;22.23;;;9.50;;
5295;SDS011;2670;42.720;23.336;2024-01-11T12:07:35;18.83;;;7.90;;
5295;SDS011;2670;42.720;23.336;2024-01-11T12:10:03;15.37;;;9.20;;
5295;SDS011;2670;42.720;23.336;2024-01-11T12:12:30;11.80;;;7.03;;
5295;SDS011;2670;42.720;23.336;2024-01-11T12:14:57;21.57;;;10.30;;
5295;SDS011;2670;42.720;23.336;2024-01-11T12:17:23;11.53;;;7.13;;
5295;SDS011;2670;42.720;23.336;2024-01-11T12:19:51;26.47;;;12.00;;
5295;SDS011;2670;42.720;23.336;2024-01-11T12:22:17;21.03;;;10.03;;
5295;SDS011;2670;42.720;23.336;2024-01-11T12:24:44;19.47;;;9.60;;
5295;SDS011;2670;42.720;23.336;2024-01-11T12:27:13;21.20;;;10.97;;
5295;SDS011;2670;42.720;23.336;2024-01-11T12:29:39;19.97;;;8.30;;
5295;SDS011;2670;42.720;23.336;2024-01-11T12:32:06;20.23;;;7.20;;
5295;SDS011;2670;42.720;23.336;2024-01-11T12:34:36;14.40;;;7.03;;
5295;SDS011;2670;42.720;23.336;2024-01-11T12:37:02;8.07;;;5.93;;
5295;SDS011;2670;42.720;23.336;2024-01-11T12:39:30;9.53;;;4.33;;
5295;SDS011;2670;42.720;23.336;2024-01-11T12:41:57;14.23;;;4.50;;
5295;SDS011;2670;42.720;23.336;2024-01-11T12:44:25;13.20;;;6.00;;
5295;SDS011;2670;42.720;23.336;2024-01-11T12:46:51;7.43;;;4.23;;
5295;SDS011;2670;42.720;23.336;2024-01-11T12:49:18;10.77;;;4.93;;
5295;SDS011;2670;42.720;23.336;2024-01-11T12:51:45;10.23;;;5.60;;
5295;SDS011;2670;42.720;23.336;2024-01-11T12:54:11;13.63;;;5.00;;
5295;SDS011;2670;42.720;23.336;2024-01-11T12:56:40;9.10;;;5.30;;
5295;SDS011;2670;42.720;23.336;2024-01-11T12:59:07;11.40;;;5.30;;
5295;SDS011;2670;42.720;23.336;2024-01-11T13:01:35;6.73;;;4.67;;
5295;SDS011;2670;42.720;23.336;2024-01-11T13:04:01;9.10;;;4.70;;
5295;SDS011;2670;42.720;23.336;2024-01-11T13:06:28;7.60;;;4.63;;
5295;SDS011;2670;42.720;23.336;2024-01-11T13:08:56;10.67;;;4.07;;
5295;SDS011;2670;42.720;23.336;2024-01-11T13:11:23;20.63;;;4.07;;
5295;SDS011;2670;42.720;23.336;2024-01-11T13:13:50;2.20;;;1.83;;
5295;SDS011;2670;42.720;23.336;2024-01-11T13:16:16;5.53;;;3.00;;
5295;SDS011;2670;42.720;23.336;2024-01-11T13:18:45;24.20;;;11.60;;
5295;SDS011;2670;42.720;23.336;2024-01-11T13:21:13;8.73;;;5.10;;
5295;SDS011;2670;42.720;23.336;2024-01-11T13:23:39;9.13;;;5.13;;
5295;SDS011;2670;42.720;23.336;2024-01-11T13:26:06;15.17;;;3.90;;
5295;SDS011;2670;42.720;23.336;2024-01-11T13:28:33;8.07;;;4.53;;
5295;SDS011;2670;42.720;23.336;2024-01-11T13:30:59;15.50;;;6.20;;
5295;SDS011;2670;42.720;23.336;2024-01-11T13:33:27;22.80;;;6.93;;
5295;SDS011;2670;42.720;23.336;2024-01-11T13:35:55;15.30;;;6.80;;
5295;SDS011;2670;42.720;23.336;2024-01-11T13:38:21;11.23;;;5.73;;
5295;SDS011;2670;42.720;23.336;2024-01-11T13:40:48;22.00;;;9.40;;
5295;SDS011;2670;42.720;23.336;2024-01-11T13:43:14;16.30;;;8.23;;
5295;SDS011;2670;42.720;23.336;2024-01-11T13:45:42;11.20;;;5.90;;
5295;SDS011;2670;42.720;23.336;2024-01-11T13:48:09;13.10;;;6.50;;
5295;SDS011;2670;42.720;23.336;2024-01-11T13:50:36;9.37;;;5.73;;
5295;SDS011;2670;42.720;23.336;2024-01-11T13:53:04;2.43;;;2.23;;
5295;SDS011;2670;42.720;23.336;2024-01-11T13:55:31;14.00;;;7.20;;
5295;SDS011;2670;42.720;23.336;2024-01-11T13:58:03;7.40;;;5.30;;
5295;SDS011;2670;42.720;23.336;2024-01-11T14:00:29;8.20;;;4.20;;
5295;SDS011;2670;42.720;23.336;2024-01-11T14:02:56;7.57;;;4.63;;
5295;SDS011;2670;42.720;23.336;2024-01-11T14:05:22;7.30;;;4.77;;
5295;SDS011;2670;42.720;23.336;2024-01-11T14:07:48;12.67;;;5.83;;
5295;SDS011;2670;42.720;23.336;2024-01-11T14:10:20;12.70;;;6.30;;
5295;SDS011;2670;42.720;23.336;2024-01-11T14:12:47;15.93;;;6.70;;
5295;SDS011;2670;42.720;23.336;2024-01-11T14:15:15;11.40;;;7.17;;
5295;SDS011;2670;42.720;23.336;2024-01-11T14:17:41;14.60;;;8.10;;
5295;SDS011;2670;42.720;23.336;2024-01-11T14:20:08;14.30;;;7.37;;
5295;SDS011;2670;42.720;23.336;2024-01-11T14:22:38;19.97;;;8.80;;
5295;SDS011;2670;42.720;23.336;2024-01-11T14:25:04;16.53;;;7.20;;
5295;SDS011;2670;42.720;23.336;2024-01-11T14:27:32;18.17;;;8.80;;
5295;SDS011;2670;42.720;23.336;2024-01-11T14:29:59;11.50;;;6.80;;
5295;SDS011;2670;42.720;23.336;2024-01-11T14:32:25;11.67;;;6.27;;
5295;SDS011;2670;42.720;23.336;2024-01-11T14:34:52;11.93;;;7.03;;
5295;SDS011;2670;42.720;23.336;2024-01-11T14:37:18;16.37;;;9.20;;
5295;SDS011;2670;42.720;23.336;2024-01-11T14:39:45;11.57;;;6.70;;
5295;SDS011;2670;42.720;23.336;2024-01-11T14:42:11;44.57;;;20.47;;
5295;SDS011;2670;42.720;23.336;2024-01-11T14:44:39;4.80;;;3.60;;
5295;SDS011;2670;42.720;23.336;2024-01-11T14:47:05;12.73;;;6.93;;